Time;durP1;ratioP1;P1;durP2;ratioP2;P2;SDS_P1;SDS_P2;PMS_P1;PMS_P2;Temp;Humidity;BMP_temperature;BMP_pressure;BME280_temperature;BME280_humidity;BME280_pressure;Samples;Min_cycle;Max_cycle;Signal;HPM_P1;HPM_P2
2021/12/03 00:00:54;;;;;;;0.67;0.67;;;2.30;77.40;1.40;97608.00;;;;5114848;28;20633;-69
2021/12/03 00:03:21;;;;;;;0.93;0.93;;;2.30;76.80;1.30;97597.00;;;;5114847;28;20263;-69
2021/12/03 00:05:50;;;;;;;0.70;0.70;;;2.20;77.30;1.40;97603.00;;;;5114603;28;20574;-70
2021/12/03 00:08:19;;;;;;;0.70;0.70;;;2.20;77.60;1.30;97615.00;;;;5114932;28;20277;-69
2021/12/03 00:10:50;;;;;;;1.20;1.17;;;2.20;77.70;1.20;97625.00;;;;5114809;28;20344;-69
2021/12/03 00:13:19;;;;;;;1.63;1.53;;;2.20;77.50;1.30;97629.00;;;;5114835;28;20203;-69
2021/12/03 00:15:45;;;;;;;1.77;1.63;;;2.20;77.50;1.30;97637.00;;;;5114766;28;20197;-69
2021/12/03 00:18:12;;;;;;;2.40;2.20;;;2.20;77.30;1.40;97642.00;;;;5096924;28;20532;-69
2021/12/03 00:20:39;;;;;;;0.77;0.70;;;2.30;77.10;1.60;97641.00;;;;5114705;28;20191;-69
2021/12/03 00:23:08;;;;;;;1.30;1.03;;;2.30;77.60;1.40;97651.00;;;;5114577;28;20202;-69
2021/12/03 00:25:36;;;;;;;0.80;0.80;;;2.30;76.90;1.60;97659.00;;;;5114481;28;20229;-69
2021/12/03 00:28:05;;;;;;;0.60;0.60;;;2.30;77.90;1.40;97669.00;;;;5096833;28;20201;-69
2021/12/03 00:30:36;;;;;;;1.23;1.13;;;2.30;77.00;1.30;97673.00;;;;5114568;28;20227;-69
2021/12/03 00:33:08;;;;;;;1.03;1.03;;;2.20;77.20;1.40;97662.00;;;;5114541;28;20231;-69
2021/12/03 00:35:36;;;;;;;1.20;1.20;;;2.30;77.60;1.40;97674.00;;;;5114829;28;20193;-69
2021/12/03 00:38:06;;;;;;;1.10;1.10;;;2.30;77.60;1.40;97672.00;;;;5114604;28;20203;-69
2021/12/03 00:40:39;;;;;;;0.83;0.83;;;2.20;77.50;1.50;97680.00;;;;5096525;28;20527;-69
2021/12/03 00:43:06;;;;;;;0.80;0.80;;;2.30;77.40;1.50;97697.00;;;;5114375;28;20640;-69
2021/12/03 00:45:33;;;;;;;0.90;0.90;;;2.30;77.20;1.40;97695.00;;;;5114368;28;20213;-69
2021/12/03 00:48:01;;;;;;;0.97;0.97;;;2.30;77.10;1.40;97675.00;;;;5114303;28;20296;-69
2021/12/03 00:50:32;;;;;;;0.90;0.90;;;2.30;77.20;1.40;97688.00;;;;5114257;28;20255;-69
2021/12/03 00:53:01;;;;;;;0.93;0.93;;;2.30;77.40;1.40;97709.00;;;;5113364;28;20356;-69
2021/12/03 00:55:31;;;;;;;0.80;0.80;;;2.30;77.60;1.40;97714.00;;;;5096180;28;20576;-69
2021/12/03 00:57:58;;;;;;;0.70;0.70;;;2.30;77.00;1.40;97714.00;;;;5117835;28;20201;-69
2021/12/03 01:00:30;;;;;;;2.93;1.23;;;2.30;77.20;1.30;97722.00;;;;5117929;28;20246;-69
2021/12/03 01:03:00;;;;;;;1.00;1.00;;;2.20;77.60;1.40;97714.00;;;;5117844;28;20247;-69
2021/12/03 01:05:27;;;;;;;0.70;0.70;;;2.20;78.40;1.40;97730.00;;;;5117729;28;20243;-69
2021/12/03 01:07:54;;;;;;;1.00;1.00;;;2.30;77.50;1.50;97715.00;;;;5117776;28;20271;-69
2021/12/03 01:10:22;;;;;;;1.00;1.00;;;2.30;78.00;1.50;97727.00;;;;5117714;28;20198;-70
2021/12/03 01:12:51;;;;;;;2.20;1.70;;;2.40;76.30;1.30;97730.00;;;;5099889;28;20577;-69
2021/12/03 01:15:25;;;;;;;1.73;1.63;;;2.30;76.70;1.50;97737.00;;;;5117390;28;20281;-69
2021/12/03 01:17:52;;;;;;;1.00;1.00;;;2.30;77.10;1.50;97737.00;;;;5117487;28;20197;-69
2021/12/03 01:20:20;;;;;;;0.80;0.80;;;2.40;75.60;1.30;97739.00;;;;5117585;28;20252;-69
2021/12/03 01:22:50;;;;;;;0.70;0.70;;;2.30;75.80;1.40;97736.00;;;;5117380;28;20218;-69
2021/12/03 01:25:20;;;;;;;1.17;0.93;;;2.20;76.50;1.40;97756.00;;;;5117390;28;20218;-69
2021/12/03 01:27:48;;;;;;;0.87;0.87;;;2.30;76.40;1.40;97765.00;;;;5117488;28;20195;-69
2021/12/03 01:30:20;;;;;;;1.00;1.00;;;2.20;76.50;1.40;97759.00;;;;5117426;28;20227;-69
2021/12/03 01:32:51;;;;;;;0.83;0.83;;;2.30;76.40;1.20;97718.00;;;;5117434;28;20289;-68
2021/12/03 01:35:20;;;;;;;1.13;1.13;;;2.20;76.40;1.30;97753.00;;;;5117254;28;20318;-69
2021/12/03 01:37:48;;;;;;;1.00;1.00;;;2.20;76.60;1.30;97760.00;;;;5117112;28;20226;-69
2021/12/03 01:40:19;;;;;;;0.80;0.80;;;2.20;76.90;1.20;97741.00;;;;5117226;28;20209;-69
2021/12/03 01:42:46;;;;;;;1.03;1.00;;;2.20;76.90;1.40;97750.00;;;;5117229;28;20194;-69
2021/12/03 01:45:17;;;;;;;0.77;0.77;;;2.20;77.00;1.30;97754.00;;;;5099142;28;20239;-69
2021/12/03 01:47:48;;;;;;;1.13;1.13;;;2.20;76.90;1.20;97770.00;;;;5117107;28;20209;-69
2021/12/03 01:50:16;;;;;;;0.73;0.73;;;2.10;77.00;1.20;97774.00;;;;5117014;28;20569;-69
2021/12/03 01:52:44;;;;;;;0.90;0.90;;;2.10;76.60;1.10;97767.00;;;;5116981;28;20242;-69
2021/12/03 01:55:13;;;;;;;0.83;0.83;;;2.00;76.60;1.10;97761.00;;;;5117002;28;20199;-69
2021/12/03 01:57:40;;;;;;;0.90;0.90;;;2.00;76.90;1.10;97741.00;;;;5116825;28;20225;-69
2021/12/03 02:00:14;;;;;;;0.90;0.90;;;2.00;77.00;1.30;97774.00;;;;5116832;28;20770;-69
2021/12/03 02:02:42;;;;;;;0.83;0.83;;;2.10;77.00;1.00;97766.00;;;;5116867;28;20194;-69
2021/12/03 02:05:12;;;;;;;1.03;1.03;;;2.00;76.50;1.20;97773.00;;;;5116663;28;20658;-69
2021/12/03 02:07:38;;;;;;;1.00;1.00;;;2.00;76.60;1.10;97768.00;;;;5115461;28;20210;-69
2021/12/03 02:10:07;;;;;;;0.77;0.77;;;2.00;76.40;1.10;97769.00;;;;5116741;28;20191;-69
2021/12/03 02:12:34;;;;;;;0.90;0.90;;;2.00;76.20;1.00;97768.00;;;;5116637;28;20610;-69
2021/12/03 02:15:02;;;;;;;0.93;0.93;;;2.00;76.50;0.90;97766.00;;;;5116721;28;20198;-69
2021/12/03 02:17:29;;;;;;;0.80;0.80;;;1.90;76.70;0.90;97766.00;;;;5098602;28;20522;-69
2021/12/03 02:19:56;;;;;;;0.70;0.70;;;1.90;76.90;0.90;97768.00;;;;5098553;28;20226;-69
2021/12/03 02:22:24;;;;;;;0.67;0.67;;;1.80;77.10;1.00;97776.00;;;;5116604;28;20535;-69
2021/12/03 02:24:50;;;;;;;1.30;1.23;;;1.90;77.60;0.80;97780.00;;;;5116445;28;20213;-69
2021/12/03 02:27:17;;;;;;;0.90;0.90;;;1.80;77.80;0.80;97789.00;;;;5116337;28;20550;-71
2021/12/03 02:29:44;;;;;;;1.00;1.00;;;1.70;77.90;0.70;97787.00;;;;5116451;28;20186;-69
2021/12/03 02:32:11;;;;;;;0.77;0.77;;;1.70;77.90;0.80;97799.00;;;;5116403;28;20637;-69
2021/12/03 02:34:38;;;;;;;1.23;1.23;;;1.70;78.30;0.80;97792.00;;;;5098319;28;20221;-69
2021/12/03 02:37:07;;;;;;;1.20;1.20;;;1.70;78.00;0.90;97793.00;;;;5116558;28;20330;-69
2021/12/03 02:39:34;;;;;;;0.87;0.87;;;1.70;77.60;0.80;97792.00;;;;5116290;28;20202;-69
2021/12/03 02:42:01;;;;;;;1.30;1.30;;;1.70;77.90;0.70;97795.00;;;;5115209;28;20230;-70
2021/12/03 02:44:28;;;;;;;1.17;1.17;;;1.70;78.10;0.70;97796.00;;;;5116164;28;20194;-70
2021/12/03 02:46:54;;;;;;;1.33;1.33;;;1.60;78.70;0.80;97797.00;;;;5116124;28;20221;-71
2021/12/03 02:49:21;;;;;;;1.10;1.10;;;1.70;78.10;0.70;97808.00;;;;5116074;28;20248;-70
2021/12/03 02:51:48;;;;;;;0.70;0.70;;;1.60;78.30;0.70;97796.00;;;;5116078;28;20225;-70
2021/12/03 02:54:17;;;;;;;1.03;0.93;;;1.60;78.30;0.90;97801.00;;;;5116391;28;20194;-69
2021/12/03 02:56:48;;;;;;;0.70;0.70;;;1.70;78.40;0.80;97802.00;;;;5116009;28;20219;-69
2021/12/03 02:59:14;;;;;;;1.00;1.00;;;1.70;77.10;0.90;97814.00;;;;5115920;28;20206;-69
2021/12/03 03:01:41;;;;;;;0.70;0.70;;;1.70;77.10;0.80;97818.00;;;;5115948;28;20202;-69
2021/12/03 03:04:10;;;;;;;1.57;1.57;;;1.70;77.30;0.90;97813.00;;;;5115793;28;20297;-69
2021/12/03 03:06:39;;;;;;;0.87;0.87;;;1.80;77.20;0.80;97811.00;;;;5115767;28;20218;-69
2021/12/03 03:09:08;;;;;;;0.70;0.70;;;1.70;76.70;0.80;97803.00;;;;5115780;28;20216;-69
2021/12/03 03:11:37;;;;;;;0.70;0.70;;;1.70;77.30;0.90;97820.00;;;;5115852;28;20266;-69
2021/12/03 03:14:05;;;;;;;0.80;0.80;;;1.80;77.20;0.90;97808.00;;;;5115752;28;20228;-69
2021/12/03 03:16:33;;;;;;;3.30;2.10;;;1.80;76.60;0.80;97811.00;;;;5115645;28;20206;-69
2021/12/03 03:19:09;;;;;;;0.90;0.90;;;1.80;76.70;0.80;97814.00;;;;5115241;28;20194;-69
2021/12/03 03:21:36;;;;;;;1.00;1.00;;;1.70;77.30;0.80;97817.00;;;;5115596;28;20197;-69
2021/12/03 03:24:07;;;;;;;1.07;1.07;;;1.70;77.20;0.80;97829.00;;;;5115431;28;20190;-69
2021/12/03 03:26:36;;;;;;;1.03;1.03;;;1.70;77.20;0.70;97816.00;;;;5115393;28;20274;-70
2021/12/03 03:29:06;;;;;;;1.13;1.07;;;1.70;77.40;0.80;97821.00;;;;5115463;28;20202;-69
2021/12/03 03:31:35;;;;;;;0.90;0.90;;;1.70;77.70;0.90;97829.00;;;;5115372;28;20222;-69
2021/12/03 03:34:03;;;;;;;1.00;1.00;;;1.70;77.60;1.10;97830.00;;;;5115284;28;20206;-69
2021/12/03 03:36:33;;;;;;;1.17;1.13;;;1.80;77.30;0.90;97814.00;;;;5115255;28;20220;-69
2021/12/03 03:39:05;;;;;;;2.13;1.37;;;1.80;77.20;1.10;97841.00;;;;5115260;28;20305;-69
2021/12/03 03:41:35;;;;;;;0.97;0.97;;;1.90;76.20;1.10;97840.00;;;;5115352;28;20232;-69
2021/12/03 03:44:02;;;;;;;1.10;1.10;;;1.90;76.40;1.00;97850.00;;;;5115158;28;20259;-69
2021/12/03 03:46:29;;;;;;;1.00;0.90;;;1.90;75.80;0.90;97847.00;;;;5097088;28;20236;-69
2021/12/03 03:48:56;;;;;;;1.03;1.03;;;1.90;75.70;0.90;97847.00;;;;5115169;28;20205;-69
2021/12/03 03:51:24;;;;;;;0.90;0.90;;;1.80;76.20;1.00;97844.00;;;;5115205;28;20205;-69
2021/12/03 03:53:51;;;;;;;1.00;1.00;;;1.90;76.20;1.00;97854.00;;;;5113976;28;20255;-69
2021/12/03 03:56:21;;;;;;;0.80;0.80;;;1.80;75.90;0.80;97854.00;;;;5115007;28;20629;-69
2021/12/03 03:58:50;;;;;;;0.70;0.70;;;1.70;76.00;1.00;97847.00;;;;5114968;28;20637;-69
2021/12/03 04:01:17;;;;;;;0.77;0.77;;;1.80;76.30;0.90;97854.00;;;;5114909;28;20222;-69
2021/12/03 04:03:46;;;;;;;1.40;1.30;;;1.70;76.30;1.00;97852.00;;;;5097125;28;20285;-69
2021/12/03 04:06:13;;;;;;;0.73;0.73;;;1.80;76.00;1.00;97868.00;;;;5113897;28;20400;-69
2021/12/03 04:08:40;;;;;;;1.00;1.00;;;1.80;76.30;0.80;97871.00;;;;5114723;28;20710;-69
2021/12/03 04:11:06;;;;;;;1.37;1.27;;;1.80;75.30;0.80;97871.00;;;;5114749;28;20209;-69
2021/12/03 04:13:33;;;;;;;1.73;1.63;;;1.70;75.90;0.80;97867.00;;;;5114790;28;20602;-69
2021/12/03 04:16:00;;;;;;;1.10;1.00;;;1.70;76.00;0.90;97861.00;;;;5114714;28;20194;-69
2021/12/03 04:18:26;;;;;;;1.03;0.93;;;1.70;75.60;0.90;97868.00;;;;5114704;28;20205;-69
2021/12/03 04:20:54;;;;;;;1.10;1.10;;;1.80;75.50;1.00;97875.00;;;;5114740;28;20292;-69
2021/12/03 04:23:21;;;;;;;0.70;0.70;;;1.90;75.30;0.90;97887.00;;;;5114709;28;20194;-70
2021/12/03 04:25:49;;;;;;;1.63;1.53;;;1.80;75.10;0.90;97894.00;;;;5114700;28;20213;-69
2021/12/03 04:28:21;;;;;;;1.17;1.17;;;1.80;75.40;1.00;97889.00;;;;5114583;28;20214;-69
2021/12/03 04:30:51;;;;;;;0.67;0.67;;;1.80;75.10;0.80;97892.00;;;;5113713;28;20202;-69
2021/12/03 04:33:19;;;;;;;0.90;0.90;;;1.80;75.10;0.80;97890.00;;;;5114648;28;20239;-69
2021/12/03 04:35:46;;;;;;;1.13;1.13;;;1.80;74.90;0.90;97891.00;;;;5114310;28;20217;-69
2021/12/03 04:38:14;;;;;;;1.87;1.50;;;1.80;75.10;1.00;97875.00;;;;5114463;28;20577;-69
2021/12/03 04:40:43;;;;;;;1.00;1.00;;;1.80;74.70;1.00;97896.00;;;;5114486;28;20258;-69
2021/12/03 04:43:11;;;;;;;1.10;1.10;;;1.90;73.80;0.90;97900.00;;;;5114233;28;20224;-69
2021/12/03 04:45:40;;;;;;;1.60;1.27;;;1.80;73.60;0.80;97906.00;;;;5114434;28;20535;-69
2021/12/03 04:48:08;;;;;;;1.83;1.20;;;1.70;74.30;0.80;97901.00;;;;5114492;28;20201;-69
2021/12/03 04:50:42;;;;;;;0.87;0.87;;;1.80;74.00;0.90;97906.00;;;;5114221;28;20221;-69
2021/12/03 04:53:09;;;;;;;0.93;0.93;;;1.80;73.50;0.90;97912.00;;;;5114418;28;20541;-69
2021/12/03 04:55:37;;;;;;;0.80;0.80;;;1.80;73.20;0.90;97920.00;;;;5114250;28;20205;-70
2021/12/03 04:58:05;;;;;;;1.80;1.70;;;1.80;73.50;1.00;97919.00;;;;5114093;28;20213;-70
2021/12/03 05:00:37;;;;;;;0.70;0.70;;;1.90;74.50;1.00;97925.00;;;;5114349;28;20195;-69
2021/12/03 05:03:05;;;;;;;1.20;1.20;;;1.90;72.60;0.90;97925.00;;;;5114488;28;20333;-69
2021/12/03 05:05:34;;;;;;;0.83;0.83;;;1.80;73.00;1.00;97919.00;;;;5114151;28;20301;-69
2021/12/03 05:08:07;;;;;;;1.60;1.07;;;1.80;73.20;0.60;97922.00;;;;5114322;28;20201;-71
2021/12/03 05:10:38;;;;;;;1.57;1.47;;;1.70;73.20;0.80;97925.00;;;;5113914;28;20203;-69
2021/12/03 05:13:11;;;;;;;1.37;1.37;;;1.80;73.20;0.70;97921.00;;;;5113986;28;20312;-69
2021/12/03 05:15:39;;;;;;;0.77;0.77;;;1.70;73.30;0.70;97923.00;;;;5096167;28;20195;-69
2021/12/03 05:18:08;;;;;;;0.70;0.70;;;1.60;73.70;0.80;97921.00;;;;5114049;28;20187;-69
2021/12/03 05:20:36;;;;;;;0.70;0.70;;;1.80;72.80;1.00;97925.00;;;;5113846;28;20206;-69
2021/12/03 05:23:03;;;;;;;0.90;0.90;;;1.80;71.90;0.90;97925.00;;;;5113828;28;20194;-69
2021/12/03 05:25:32;;;;;;;1.90;1.13;;;1.70;72.20;0.80;97930.00;;;;5113787;28;20210;-70
2021/12/03 05:27:59;;;;;;;2.23;2.10;;;1.70;71.90;0.80;97941.00;;;;5114028;28;20297;-69
2021/12/03 05:30:27;;;;;;;0.90;0.90;;;1.70;71.80;0.60;97932.00;;;;5113821;28;20201;-69
2021/12/03 05:32:55;;;;;;;1.27;1.27;;;1.60;72.20;0.50;97941.00;;;;5095714;28;20202;-69
2021/12/03 05:35:22;;;;;;;1.27;1.17;;;1.60;72.40;0.60;97938.00;;;;5113678;28;20255;-69
2021/12/03 05:37:51;;;;;;;1.33;1.33;;;1.50;72.70;0.60;97946.00;;;;5113604;28;20210;-69
2021/12/03 05:40:18;;;;;;;0.70;0.70;;;1.50;72.90;0.40;97943.00;;;;5113518;28;20233;-69
2021/12/03 05:42:46;;;;;;;1.37;1.23;;;1.50;72.80;0.40;97945.00;;;;5097194;28;20217;-69
2021/12/03 05:45:21;;;;;;;1.33;1.33;;;1.40;73.30;0.50;97960.00;;;;5117126;28;20567;-70
2021/12/03 05:47:48;;;;;;;1.37;1.37;;;1.40;73.50;0.50;97959.00;;;;5117075;28;20225;-69
2021/12/03 05:50:16;;;;;;;0.73;0.73;;;1.40;73.00;0.50;97952.00;;;;5117015;28;20318;-69
2021/12/03 05:52:44;;;;;;;0.70;0.70;;;1.40;73.00;0.50;97961.00;;;;5116261;28;20218;-69
2021/12/03 05:55:12;;;;;;;1.00;1.00;;;1.40;73.10;0.50;97959.00;;;;5116739;28;20238;-69
2021/12/03 05:57:41;;;;;;;1.20;1.20;;;1.50;73.00;0.30;97970.00;;;;5116776;28;20205;-69
2021/12/03 06:00:14;;;;;;;1.23;1.23;;;1.40;73.00;0.30;97983.00;;;;5116696;28;20202;-69
2021/12/03 06:02:41;;;;;;;1.40;1.30;;;1.30;73.80;0.20;97974.00;;;;5116400;28;20248;-69
2021/12/03 06:05:09;;;;;;;0.80;0.80;;;1.20;73.80;0.20;97973.00;;;;5116525;28;20240;-70
2021/12/03 06:07:36;;;;;;;0.87;0.87;;;1.20;74.00;0.20;97974.00;;;;5116436;28;20225;-69
2021/12/03 06:10:04;;;;;;;1.13;1.13;;;1.20;73.90;0.10;97994.00;;;;5116560;28;20221;-69
2021/12/03 06:12:34;;;;;;;2.63;2.07;;;1.10;75.00;0.10;97987.00;;;;5116641;28;20202;-69
2021/12/03 06:15:01;;;;;;;1.73;1.63;;;1.10;76.10;0.10;97997.00;;;;5116564;28;20336;-69
2021/12/03 06:17:28;;;;;;;1.67;1.57;;;1.10;75.00;0.10;98009.00;;;;5116606;28;20260;-71
2021/12/03 06:19:57;;;;;;;2.07;1.80;;;1.10;74.50;-0.10;98007.00;;;;5116420;28;20186;-69
2021/12/03 06:22:23;;;;;;;0.97;0.97;;;1.00;74.70;0.00;98002.00;;;;5116531;28;20640;-69
2021/12/03 06:24:50;;;;;;;1.10;1.10;;;0.90;74.80;-0.20;97999.00;;;;5116463;28;20229;-69
2021/12/03 06:27:16;;;;;;;1.07;1.07;;;0.80;74.80;-0.30;98005.00;;;;5116394;28;20217;-69
2021/12/03 06:29:45;;;;;;;1.37;1.37;;;0.70;75.90;-0.20;98012.00;;;;5116393;28;20215;-69
2021/12/03 06:32:12;;;;;;;3.27;1.37;;;0.80;75.50;-0.20;98000.00;;;;5116539;28;20761;-69
2021/12/03 06:34:41;;;;;;;2.53;1.90;;;0.70;75.10;-0.10;98007.00;;;;5116439;28;20198;-69
2021/12/03 06:37:09;;;;;;;1.90;1.80;;;0.80;74.80;-0.40;98003.00;;;;5116264;28;20202;-69
2021/12/03 06:39:37;;;;;;;1.43;1.43;;;0.70;74.80;-0.30;98007.00;;;;5116287;28;20317;-69
2021/12/03 06:42:06;;;;;;;2.43;1.87;;;0.70;74.10;-0.40;97989.00;;;;5116319;28;20297;-69
2021/12/03 06:44:34;;;;;;;0.90;0.90;;;0.70;73.10;-0.20;98014.00;;;;5116047;28;20312;-69
2021/12/03 06:47:02;;;;;;;0.83;0.83;;;0.70;73.20;-0.30;98012.00;;;;5116091;28;20314;-69
2021/12/03 06:49:33;;;;;;;0.90;0.90;;;0.70;73.00;-0.30;98017.00;;;;5116114;28;20285;-69
2021/12/03 06:52:04;;;;;;;1.33;1.33;;;0.70;73.40;-0.20;98025.00;;;;5115909;28;20247;-69
2021/12/03 06:54:32;;;;;;;1.33;1.33;;;0.70;73.10;-0.10;98013.00;;;;5115260;28;20205;-70
2021/12/03 06:57:00;;;;;;;1.30;1.20;;;0.80;73.20;0.00;98026.00;;;;5115977;28;20208;-70
2021/12/03 06:59:27;;;;;;;0.60;0.60;;;0.90;71.60;0.00;98009.00;;;;5115775;28;20225;-70
2021/12/03 07:01:54;;;;;;;0.97;0.97;;;1.00;71.30;0.10;98038.00;;;;5115849;28;20649;-69
2021/12/03 07:04:22;;;;;;;4.90;1.70;;;1.00;71.20;0.20;98032.00;;;;5115770;28;20305;-69
2021/12/03 07:06:50;;;;;;;1.17;1.17;;;1.10;70.80;0.20;98040.00;;;;5097479;28;20233;-70
2021/12/03 07:09:17;;;;;;;1.10;1.10;;;1.10;69.60;0.30;98053.00;;;;5115687;28;20221;-70
2021/12/03 07:11:44;;;;;;;0.57;0.57;;;1.20;72.20;0.50;98038.00;;;;5116034;28;20214;-72
2021/12/03 07:14:15;;;;;;;2.67;1.37;;;1.40;71.00;0.50;98044.00;;;;5115886;28;20681;-71
2021/12/03 07:16:41;;;;;;;0.73;0.73;;;1.40;70.00;0.60;98044.00;;;;5115803;28;20240;-70
2021/12/03 07:19:11;;;;;;;0.80;0.80;;;1.50;68.30;0.60;98047.00;;;;5115700;28;20250;-70
2021/12/03 07:21:40;;;;;;;0.70;0.70;;;1.50;67.70;0.50;98054.00;;;;5097625;28;20602;-70
2021/12/03 07:24:07;;;;;;;8.20;2.10;;;1.40;65.70;0.40;98047.00;;;;5115348;28;20221;-70
2021/12/03 07:26:35;;;;;;;0.70;0.70;;;1.40;65.10;0.50;98056.00;;;;5115435;28;20307;-70
2021/12/03 07:29:01;;;;;;;1.10;1.10;;;1.40;65.60;0.50;98063.00;;;;5115366;28;20217;-72
2021/12/03 07:31:28;;;;;;;0.90;0.90;;;1.40;65.00;0.50;98057.00;;;;5115404;28;20607;-71
2021/12/03 07:33:56;;;;;;;0.77;0.77;;;1.40;64.10;0.60;98066.00;;;;5115417;28;20288;-72
2021/12/03 07:36:25;;;;;;;1.10;1.00;;;;;0.60;98061.00;;;;5115344;28;20194;-70
2021/12/03 07:38:51;;;;;;;2.63;0.80;;;1.50;63.40;0.50;98069.00;;;;5115195;28;20229;-71
2021/12/03 07:41:18;;;;;;;0.90;0.90;;;1.40;64.00;0.50;98071.00;;;;5114789;28;20309;-70
2021/12/03 07:43:46;;;;;;;1.23;1.17;;;;;0.70;98081.00;;;;5115219;28;20208;-71
2021/12/03 07:46:15;;;;;;;0.80;0.80;;;1.50;64.10;0.70;98091.00;;;;5115000;28;20286;-70
2021/12/03 07:48:46;;;;;;;1.00;1.00;;;1.60;63.80;0.80;98096.00;;;;5115151;28;20209;-70
2021/12/03 07:51:14;;;;;;;1.00;1.00;;;1.60;63.50;0.70;98080.00;;;;5096709;28;20552;-69
2021/12/03 07:53:44;;;;;;;0.80;0.80;;;1.60;63.60;0.70;98087.00;;;;5097136;28;20296;-70
2021/12/03 07:56:11;;;;;;;1.10;1.10;;;1.60;64.20;0.80;98088.00;;;;5114935;28;20290;-71
2021/12/03 07:58:41;;;;;;;0.70;0.70;;;1.70;64.80;0.80;98081.00;;;;5114888;28;20218;-70
2021/12/03 08:01:08;;;;;;;0.97;0.97;;;1.60;63.30;0.80;98080.00;;;;5114033;28;20205;-71
2021/12/03 08:03:34;;;;;;;1.00;1.00;;;1.70;63.60;0.90;98072.00;;;;5115012;28;20289;-71
2021/12/03 08:06:07;;;;;;;0.83;0.83;;;1.70;64.30;0.70;98074.00;;;;5114757;28;20322;-70
2021/12/03 08:08:36;;;;;;;0.70;0.70;;;1.70;64.40;0.80;98082.00;;;;5114849;28;20229;-70
2021/12/03 08:11:03;;;;;;;1.00;1.00;;;1.70;64.70;1.00;98067.00;;;;5114757;28;20206;-71
2021/12/03 08:13:30;;;;;;;1.37;1.10;;;1.80;64.70;0.90;98086.00;;;;5114663;28;20275;-74
2021/12/03 08:15:56;;;;;;;0.80;0.80;;;1.80;65.10;1.00;98088.00;;;;5097006;28;20313;-72
2021/12/03 08:18:26;;;;;;;0.70;0.70;;;1.90;64.40;1.00;98088.00;;;;5114998;28;20605;-71
2021/12/03 08:20:53;;;;;;;0.70;0.70;;;1.90;64.90;1.00;98090.00;;;;5114589;28;20194;-71
2021/12/03 08:23:22;;;;;;;0.77;0.77;;;1.90;64.40;0.90;98084.00;;;;5114684;28;20255;-71
2021/12/03 08:25:49;;;;;;;0.90;0.90;;;1.90;63.90;1.20;98072.00;;;;5114556;28;20383;-70
2021/12/03 08:28:16;;;;;;;0.73;0.73;;;2.10;63.20;1.10;98090.00;;;;5114669;28;20308;-70
2021/12/03 08:30:42;;;;;;;0.60;0.60;;;2.00;63.50;1.00;98082.00;;;;5114582;28;20218;-70
2021/12/03 08:33:09;;;;;;;0.80;0.80;;;1.90;63.60;1.20;98088.00;;;;5114583;28;20294;-70
2021/12/03 08:35:36;;;;;;;0.80;0.80;;;2.10;63.70;1.20;98080.00;;;;5114593;28;20199;-70
2021/12/03 08:38:03;;;;;;;0.80;0.80;;;2.10;64.20;1.30;98076.00;;;;5114608;28;20255;-70
2021/12/03 08:40:30;;;;;;;1.37;1.03;;;2.10;63.40;1.30;98081.00;;;;5114488;28;20236;-70
2021/12/03 08:42:57;;;;;;;0.60;0.60;;;2.10;62.70;1.50;98070.00;;;;5096507;28;20646;-70
2021/12/03 08:45:25;;;;;;;0.57;0.57;;;2.30;62.50;1.30;98081.00;;;;5114409;28;20230;-70
2021/12/03 08:47:54;;;;;;;1.23;1.13;;;2.30;62.20;1.30;98085.00;;;;5114393;28;20209;-71
2021/12/03 08:50:28;;;;;;;0.60;0.60;;;2.20;64.10;1.30;98081.00;;;;5114162;28;20198;-71
2021/12/03 08:53:16;;;;;;;0.70;0.70;;;2.20;63.70;1.30;98092.00;;;;5114390;28;20210;-69
2021/12/03 08:55:46;;;;;;;0.70;0.70;;;2.20;62.90;1.50;98091.00;;;;5114254;28;20196;-70
2021/12/03 08:58:16;;;;;;;0.70;0.70;;;2.30;62.90;1.40;98089.00;;;;5114033;28;20213;-68
2021/12/03 09:00:44;;;;;;;3.23;1.53;;;2.40;63.50;1.50;98092.00;;;;5114163;28;20210;-69
2021/12/03 09:03:11;;;;;;;0.80;0.80;;;2.40;62.30;1.70;98104.00;;;;5114351;28;20621;-70
2021/12/03 09:05:39;;;;;;;0.70;0.70;;;2.50;62.30;1.80;98100.00;;;;5114134;28;20295;-70
2021/12/03 09:08:06;;;;;;;1.00;1.00;;;2.60;62.20;1.90;98097.00;;;;5113392;28;20646;-71
2021/12/03 09:10:35;;;;;;;0.70;0.70;;;2.70;61.40;1.80;98106.00;;;;5114054;28;20205;-72
2021/12/03 09:13:04;;;;;;;1.17;1.00;;;2.70;61.00;1.90;98109.00;;;;5113942;28;20520;-71
2021/12/03 09:15:37;;;;;;;0.63;0.63;;;2.70;61.20;2.00;98098.00;;;;5113945;28;20271;-69
2021/12/03 09:20:53;;;;;;;0.70;0.70;;;2.70;61.20;2.10;98096.00;;;;5115025;28;20207;-69
2021/12/03 09:23:28;;;;;;;0.60;0.60;;;2.90;60.10;2.20;98107.00;;;;5117662;28;20196;-70
2021/12/03 09:26:04;;;;;;;8.17;1.20;;;2.90;59.90;2.20;98098.00;;;;5117470;28;20232;-69
2021/12/03 09:28:30;;;;;;;1.23;0.97;;;3.00;59.60;2.20;98112.00;;;;5117254;28;20324;-71
2021/12/03 09:30:57;;;;;;;0.57;0.57;;;3.00;59.60;2.20;98105.00;;;;5099548;28;20294;-70
2021/12/03 09:33:27;;;;;;;0.70;0.70;;;3.00;59.60;2.30;98101.00;;;;5099386;28;20212;-70
2021/12/03 09:35:56;;;;;;;0.87;0.87;;;3.10;59.70;2.40;98099.00;;;;5117379;28;20205;-69
2021/12/03 09:38:25;;;;;;;0.60;0.60;;;3.10;58.90;2.30;98101.00;;;;5117176;28;20513;-70
2021/12/03 09:40:54;;;;;;;0.60;0.60;;;3.20;59.50;2.60;98104.00;;;;5117391;28;20512;-70
2021/12/03 09:43:22;;;;;;;0.60;0.60;;;3.30;58.90;2.50;98096.00;;;;5117270;28;20284;-73
2021/12/03 09:45:58;;;;;;;0.80;0.80;;;3.30;57.60;2.30;98094.00;;;;5117116;28;20265;-72
2021/12/03 09:48:37;;;;;;;0.67;0.67;;;3.20;57.70;2.40;98087.00;;;;5117178;28;20286;-72
2021/12/03 09:51:03;;;;;;;1.23;1.20;;;3.20;58.60;2.40;98096.00;;;;5117066;28;20246;-72
2021/12/03 09:53:51;;;;;;;0.70;0.70;;;3.20;58.20;2.50;98082.00;;;;5117044;28;20262;-71
2021/12/03 09:56:18;;;;;;;0.80;0.80;;;3.20;56.60;2.30;98086.00;;;;5117053;28;20283;-71
2021/12/03 09:59:21;;;;;;;0.70;0.70;;;3.20;57.90;2.20;98066.00;;;;5117061;28;20206;-71
2021/12/03 10:01:48;;;;;;;0.80;0.80;;;3.10;57.20;2.30;98071.00;;;;5116788;28;20308;-72
2021/12/03 10:04:33;;;;;;;1.33;1.23;;;3.10;58.60;2.30;98073.00;;;;5116917;28;20515;-71
2021/12/03 10:12:48;;;;;;;0.90;0.90;;;3.30;57.40;2.50;98086.00;;;;5099280;28;20239;-72
2021/12/03 10:15:22;;;;;;;1.03;1.03;;;3.30;57.80;2.50;98061.00;;;;5116745;28;20518;-71
2021/12/03 10:17:58;;;;;;;0.93;0.93;;;3.30;58.20;2.40;98090.00;;;;5116673;28;20206;-71
2021/12/03 10:20:31;;;;;;;0.70;0.70;;;3.20;56.80;2.20;98069.00;;;;5098645;28;20196;-71
2021/12/03 10:34:55;;;;;;;0.83;0.83;;;3.30;59.30;2.40;98066.00;;;;5116511;28;20644;-72
2021/12/03 10:38:00;;;;;;;0.83;0.83;;;3.20;57.90;2.40;98058.00;;;;5098634;28;20198;-70
2021/12/03 10:49:23;;;;;;;1.93;1.20;;;3.40;59.10;2.90;98060.00;;;;5115135;28;20223;-71
2021/12/03 10:51:58;;;;;;;0.80;0.80;;;3.60;59.10;2.90;98052.00;;;;5098091;28;20293;-71
2021/12/03 10:54:45;;;;;;;0.80;0.80;;;3.70;58.30;3.00;98052.00;;;;5098240;28;20240;-71
2021/12/03 10:57:40;;;;;;;3.27;1.23;;;3.80;58.10;3.20;98051.00;;;;5115968;28;20221;-72
2021/12/03 11:06:22;;;;;;;0.70;0.70;;;3.60;56.80;2.80;98032.00;;;;5115947;28;20239;-71
2021/12/03 11:20:49;;;;;;;0.73;0.73;;;4.60;56.50;4.10;97993.00;;;;5115609;28;20218;-71
2021/12/03 11:29:06;;;;;;;0.83;0.83;;;4.70;55.40;4.10;97998.00;;;;5115622;28;20213;-70
2021/12/03 11:51:40;;;;;;;1.37;1.27;;;4.90;56.50;4.60;97960.00;;;;5097533;28;20530;-72
2021/12/03 13:08:15;;;;;;;0.83;0.83;;;7.80;48.90;10.90;97863.00;;;;5116589;28;20299;-72
2021/12/03 14:20:42;;;;;;;0.73;0.73;;;5.30;50.90;3.90;97877.00;;;;5098613;28;20308;-70
2021/12/03 14:42:08;;;;;;;0.57;0.57;;;4.70;51.90;3.90;97863.00;;;;5080369;28;20245;-71
2021/12/03 14:45:00;;;;;;;0.80;0.80;;;4.70;51.90;3.70;97854.00;;;;5116293;28;20194;-72
2021/12/03 14:55:53;;;;;;;0.60;0.60;;;4.40;52.60;3.60;97857.00;;;;5115679;28;20262;-71
2021/12/03 14:58:21;;;;;;;0.63;0.63;;;4.30;53.20;3.70;97857.00;;;;5116126;28;20643;-72
2021/12/03 15:00:56;;;;;;;1.00;1.00;;;4.40;53.00;3.60;97856.00;;;;5098168;28;20301;-72
2021/12/03 15:03:52;;;;;;;0.57;0.57;;;4.40;53.30;3.70;97857.00;;;;5116039;28;20197;-73
2021/12/03 15:06:35;;;;;;;0.50;0.50;;;4.50;52.90;3.40;97839.00;;;;5115909;28;20217;-73
2021/12/03 15:09:09;;;;;;;0.80;0.80;;;4.30;52.00;3.20;97844.00;;;;5115859;28;20535;-73
2021/12/03 15:23:18;;;;;;;0.83;0.83;;;3.90;53.70;2.60;97855.00;;;;5115539;28;20190;-72
2021/12/03 15:25:53;;;;;;;0.73;0.73;;;3.60;54.90;2.50;97843.00;;;;5115599;28;20265;-70
2021/12/03 15:31:15;;;;;;;0.80;0.80;;;3.50;56.10;2.50;97848.00;;;;5095912;28;20266;-72
2021/12/03 15:33:55;;;;;;;0.80;0.80;;;3.40;56.30;2.60;97854.00;;;;5115429;28;20278;-71
2021/12/03 15:36:29;;;;;;;0.93;0.93;;;3.50;56.30;2.50;97848.00;;;;5115349;28;20527;-72
2021/12/03 15:53:56;;;;;;;0.90;0.90;;;3.30;57.00;2.40;97841.00;;;;5115414;28;20217;-72